sensor_id;sensor_type;location;lat;lon;timestamp;P1;durP1;ratioP1;P2;durP2;ratioP2
61764;SDS011;50188;48.114;-1.388;2022-09-13T00:00:35;2.90;;;1.33;;
61764;SDS011;50188;48.114;-1.388;2022-09-13T00:03:01;1.88;;;0.90;;
61764;SDS011;50188;48.114;-1.388;2022-09-13T00:05:27;2.95;;;0.77;;
61764;SDS011;50188;48.114;-1.388;2022-09-13T00:07:53;4.57;;;1.13;;
61764;SDS011;50188;48.114;-1.388;2022-09-13T00:10:18;0.95;;;0.85;;
61764;SDS011;50188;48.114;-1.388;2022-09-13T00:12:44;4.25;;;1.60;;
61764;SDS011;50188;48.114;-1.388;2022-09-13T00:15:12;2.38;;;1.00;;
61764;SDS011;50188;48.114;-1.388;2022-09-13T00:17:37;2.22;;;1.13;;
61764;SDS011;50188;48.114;-1.388;2022-09-13T00:20:03;0.77;;;0.60;;
61764;SDS011;50188;48.114;-1.388;2022-09-13T00:22:29;5.95;;;1.20;;
61764;SDS011;50188;48.114;-1.388;2022-09-13T00:24:55;1.60;;;1.08;;
61764;SDS011;50188;48.114;-1.388;2022-09-13T00:27:20;4.50;;;1.02;;
61764;SDS011;50188;48.114;-1.388;2022-09-13T00:29:46;2.15;;;1.10;;
61764;SDS011;50188;48.114;-1.388;2022-09-13T00:32:11;2.17;;;1.02;;
61764;SDS011;50188;48.114;-1.388;2022-09-13T00:34:37;2.22;;;1.05;;
61764;SDS011;50188;48.114;-1.388;2022-09-13T00:37:03;2.10;;;1.88;;
61764;SDS011;50188;48.114;-1.388;2022-09-13T00:39:29;0.80;;;0.80;;
61764;SDS011;50188;48.114;-1.388;2022-09-13T00:41:54;1.08;;;1.05;;
61764;SDS011;50188;48.114;-1.388;2022-09-13T00:50:18;2.05;;;1.25;;
61764;SDS011;50188;48.114;-1.388;2022-09-13T00:52:50;3.75;;;1.05;;
61764;SDS011;50188;48.114;-1.388;2022-09-13T00:55:26;3.92;;;1.10;;
61764;SDS011;50188;48.114;-1.388;2022-09-13T00:58:03;2.35;;;0.90;;
61764;SDS011;50188;48.114;-1.388;2022-09-13T01:00:32;7.72;;;1.23;;
61764;SDS011;50188;48.114;-1.388;2022-09-13T01:02:59;2.40;;;1.20;;
61764;SDS011;50188;48.114;-1.388;2022-09-13T01:05:29;5.40;;;1.00;;
61764;SDS011;50188;48.114;-1.388;2022-09-13T01:07:59;1.13;;;1.02;;
61764;SDS011;50188;48.114;-1.388;2022-09-13T01:10:25;0.77;;;0.77;;
61764;SDS011;50188;48.114;-1.388;2022-09-13T01:12:58;1.88;;;1.25;;
61764;SDS011;50188;48.114;-1.388;2022-09-13T01:15:38;2.53;;;1.15;;
61764;SDS011;50188;48.114;-1.388;2022-09-13T01:18:05;3.25;;;1.48;;
61764;SDS011;50188;48.114;-1.388;2022-09-13T01:20:47;3.92;;;1.50;;
61764;SDS011;50188;48.114;-1.388;2022-09-13T01:23:54;2.80;;;1.20;;
61764;SDS011;50188;48.114;-1.388;2022-09-13T01:26:44;3.38;;;1.17;;
61764;SDS011;50188;48.114;-1.388;2022-09-13T01:29:39;4.47;;;1.10;;
61764;SDS011;50188;48.114;-1.388;2022-09-13T01:35:40;2.85;;;0.70;;
61764;SDS011;50188;48.114;-1.388;2022-09-13T01:38:32;2.20;;;0.82;;
61764;SDS011;50188;48.114;-1.388;2022-09-13T01:44:22;3.28;;;0.93;;
61764;SDS011;50188;48.114;-1.388;2022-09-13T01:47:26;0.95;;;0.85;;
61764;SDS011;50188;48.114;-1.388;2022-09-13T01:50:12;2.08;;;1.08;;
61764;SDS011;50188;48.114;-1.388;2022-09-13T01:52:51;2.47;;;1.05;;
61764;SDS011;50188;48.114;-1.388;2022-09-13T01:55:38;1.15;;;0.93;;
61764;SDS011;50188;48.114;-1.388;2022-09-13T01:58:20;2.60;;;1.13;;
61764;SDS011;50188;48.114;-1.388;2022-09-13T02:00:55;1.55;;;0.90;;
61764;SDS011;50188;48.114;-1.388;2022-09-13T02:03:34;2.33;;;1.17;;
61764;SDS011;50188;48.114;-1.388;2022-09-13T02:06:05;1.55;;;1.33;;
61764;SDS011;50188;48.114;-1.388;2022-09-13T02:08:40;1.98;;;1.35;;
61764;SDS011;50188;48.114;-1.388;2022-09-13T02:11:10;2.50;;;1.33;;
61764;SDS011;50188;48.114;-1.388;2022-09-13T02:13:39;4.47;;;1.23;;
61764;SDS011;50188;48.114;-1.388;2022-09-13T02:16:26;1.38;;;1.15;;
61764;SDS011;50188;48.114;-1.388;2022-09-13T02:18:58;1.38;;;1.02;;
61764;SDS011;50188;48.114;-1.388;2022-09-13T02:21:31;2.15;;;0.95;;
61764;SDS011;50188;48.114;-1.388;2022-09-13T02:24:07;4.45;;;1.50;;
61764;SDS011;50188;48.114;-1.388;2022-09-13T02:26:37;1.17;;;1.08;;
61764;SDS011;50188;48.114;-1.388;2022-09-13T02:29:08;2.63;;;1.13;;
61764;SDS011;50188;48.114;-1.388;2022-09-13T02:31:38;3.03;;;1.15;;
61764;SDS011;50188;48.114;-1.388;2022-09-13T02:34:29;2.70;;;1.25;;
61764;SDS011;50188;48.114;-1.388;2022-09-13T02:37:01;0.85;;;0.85;;
61764;SDS011;50188;48.114;-1.388;2022-09-13T02:39:29;1.27;;;1.00;;
61764;SDS011;50188;48.114;-1.388;2022-09-13T02:42:02;4.15;;;1.08;;
61764;SDS011;50188;48.114;-1.388;2022-09-13T02:44:45;2.22;;;1.35;;
61764;SDS011;50188;48.114;-1.388;2022-09-13T02:47:17;3.60;;;1.05;;
61764;SDS011;50188;48.114;-1.388;2022-09-13T02:50:01;2.45;;;0.93;;
61764;SDS011;50188;48.114;-1.388;2022-09-13T02:52:57;6.15;;;1.23;;
61764;SDS011;50188;48.114;-1.388;2022-09-13T02:55:44;1.20;;;1.10;;
61764;SDS011;50188;48.114;-1.388;2022-09-13T02:58:24;3.53;;;1.10;;
61764;SDS011;50188;48.114;-1.388;2022-09-13T03:01:01;10.18;;;1.50;;
61764;SDS011;50188;48.114;-1.388;2022-09-13T03:03:27;3.75;;;1.17;;
61764;SDS011;50188;48.114;-1.388;2022-09-13T03:05:53;2.00;;;1.00;;
61764;SDS011;50188;48.114;-1.388;2022-09-13T03:08:18;3.15;;;1.08;;
61764;SDS011;50188;48.114;-1.388;2022-09-13T03:10:47;3.13;;;0.90;;
61764;SDS011;50188;48.114;-1.388;2022-09-13T03:13:47;8.63;;;1.35;;
61764;SDS011;50188;48.114;-1.388;2022-09-13T03:16:53;2.70;;;1.67;;
61764;SDS011;50188;48.114;-1.388;2022-09-13T03:19:45;2.50;;;1.30;;
61764;SDS011;50188;48.114;-1.388;2022-09-13T03:22:26;4.68;;;1.48;;
61764;SDS011;50188;48.114;-1.388;2022-09-13T03:28:19;1.65;;;1.20;;
61764;SDS011;50188;48.114;-1.388;2022-09-13T03:31:03;1.73;;;1.45;;
61764;SDS011;50188;48.114;-1.388;2022-09-13T03:33:52;2.92;;;1.20;;
61764;SDS011;50188;48.114;-1.388;2022-09-13T03:36:26;2.53;;;1.42;;
61764;SDS011;50188;48.114;-1.388;2022-09-13T03:42:23;1.35;;;1.25;;
61764;SDS011;50188;48.114;-1.388;2022-09-13T03:44:55;3.53;;;1.42;;
61764;SDS011;50188;48.114;-1.388;2022-09-13T03:47:23;1.52;;;1.42;;
61764;SDS011;50188;48.114;-1.388;2022-09-13T03:49:51;2.25;;;1.40;;
61764;SDS011;50188;48.114;-1.388;2022-09-13T03:52:19;1.52;;;1.42;;
61764;SDS011;50188;48.114;-1.388;2022-09-13T03:54:44;4.13;;;0.98;;
61764;SDS011;50188;48.114;-1.388;2022-09-13T03:57:12;4.90;;;1.38;;
61764;SDS011;50188;48.114;-1.388;2022-09-13T03:59:45;4.63;;;1.20;;
61764;SDS011;50188;48.114;-1.388;2022-09-13T04:02:13;3.65;;;1.05;;
61764;SDS011;50188;48.114;-1.388;2022-09-13T04:04:40;2.80;;;0.88;;
61764;SDS011;50188;48.114;-1.388;2022-09-13T04:07:07;2.97;;;1.30;;
61764;SDS011;50188;48.114;-1.388;2022-09-13T04:09:34;5.35;;;1.88;;
61764;SDS011;50188;48.114;-1.388;2022-09-13T04:12:00;4.90;;;1.08;;
61764;SDS011;50188;48.114;-1.388;2022-09-13T04:14:26;4.97;;;1.42;;
61764;SDS011;50188;48.114;-1.388;2022-09-13T04:16:52;3.03;;;1.55;;
61764;SDS011;50188;48.114;-1.388;2022-09-13T04:19:19;4.78;;;1.40;;
61764;SDS011;50188;48.114;-1.388;2022-09-13T04:21:48;1.33;;;1.20;;
61764;SDS011;50188;48.114;-1.388;2022-09-13T04:24:15;2.15;;;1.20;;
61764;SDS011;50188;48.114;-1.388;2022-09-13T04:26:42;3.25;;;2.17;;
61764;SDS011;50188;48.114;-1.388;2022-09-13T04:29:08;1.48;;;1.33;;
61764;SDS011;50188;48.114;-1.388;2022-09-13T04:31:35;3.30;;;1.80;;
61764;SDS011;50188;48.114;-1.388;2022-09-13T04:34:01;1.55;;;1.45;;
61764;SDS011;50188;48.114;-1.388;2022-09-13T04:36:27;2.58;;;1.45;;
61764;SDS011;50188;48.114;-1.388;2022-09-13T04:38:52;4.20;;;1.95;;
61764;SDS011;50188;48.114;-1.388;2022-09-13T04:41:18;5.65;;;2.17;;
61764;SDS011;50188;48.114;-1.388;2022-09-13T04:43:47;1.98;;;1.10;;
61764;SDS011;50188;48.114;-1.388;2022-09-13T04:46:14;5.10;;;2.03;;
61764;SDS011;50188;48.114;-1.388;2022-09-13T04:48:39;4.07;;;1.92;;
61764;SDS011;50188;48.114;-1.388;2022-09-13T04:51:05;2.30;;;1.83;;
61764;SDS011;50188;48.114;-1.388;2022-09-13T04:53:31;3.97;;;1.20;;
61764;SDS011;50188;48.114;-1.388;2022-09-13T04:56:03;2.72;;;1.33;;
61764;SDS011;50188;48.114;-1.388;2022-09-13T04:58:30;11.00;;;2.28;;
61764;SDS011;50188;48.114;-1.388;2022-09-13T05:01:00;2.50;;;1.38;;
61764;SDS011;50188;48.114;-1.388;2022-09-13T05:03:28;1.92;;;1.63;;
61764;SDS011;50188;48.114;-1.388;2022-09-13T05:05:59;4.65;;;1.55;;
61764;SDS011;50188;48.114;-1.388;2022-09-13T05:08:26;3.72;;;1.50;;
61764;SDS011;50188;48.114;-1.388;2022-09-13T05:10:52;2.53;;;1.67;;
61764;SDS011;50188;48.114;-1.388;2022-09-13T05:13:17;2.60;;;2.05;;
61764;SDS011;50188;48.114;-1.388;2022-09-13T05:15:43;1.85;;;1.65;;
61764;SDS011;50188;48.114;-1.388;2022-09-13T05:18:09;2.33;;;2.10;;
61764;SDS011;50188;48.114;-1.388;2022-09-13T05:20:34;3.42;;;1.83;;
61764;SDS011;50188;48.114;-1.388;2022-09-13T05:23:00;1.88;;;1.55;;
61764;SDS011;50188;48.114;-1.388;2022-09-13T05:25:25;3.97;;;1.77;;
61764;SDS011;50188;48.114;-1.388;2022-09-13T05:27:51;6.05;;;1.73;;
61764;SDS011;50188;48.114;-1.388;2022-09-13T05:30:16;2.53;;;1.92;;
61764;SDS011;50188;48.114;-1.388;2022-09-13T05:32:42;2.28;;;2.00;;
61764;SDS011;50188;48.114;-1.388;2022-09-13T05:35:07;5.50;;;2.17;;
61764;SDS011;50188;48.114;-1.388;2022-09-13T05:37:33;4.47;;;2.17;;
61764;SDS011;50188;48.114;-1.388;2022-09-13T05:39:59;4.40;;;2.08;;
61764;SDS011;50188;48.114;-1.388;2022-09-13T05:42:24;3.53;;;3.22;;
61764;SDS011;50188;48.114;-1.388;2022-09-13T05:44:50;4.70;;;2.33;;
61764;SDS011;50188;48.114;-1.388;2022-09-13T05:47:15;7.00;;;2.15;;
61764;SDS011;50188;48.114;-1.388;2022-09-13T05:49:41;6.88;;;2.15;;
61764;SDS011;50188;48.114;-1.388;2022-09-13T05:52:07;3.33;;;2.05;;
61764;SDS011;50188;48.114;-1.388;2022-09-13T05:54:32;2.95;;;2.20;;
61764;SDS011;50188;48.114;-1.388;2022-09-13T05:56:58;4.78;;;1.73;;
61764;SDS011;50188;48.114;-1.388;2022-09-13T05:59:23;3.65;;;2.22;;
61764;SDS011;50188;48.114;-1.388;2022-09-13T06:01:49;9.23;;;2.17;;
61764;SDS011;50188;48.114;-1.388;2022-09-13T06:04:15;5.47;;;2.13;;
61764;SDS011;50188;48.114;-1.388;2022-09-13T06:06:40;7.78;;;2.25;;
61764;SDS011;50188;48.114;-1.388;2022-09-13T06:09:06;7.13;;;3.30;;
61764;SDS011;50188;48.114;-1.388;2022-09-13T06:11:33;7.15;;;1.95;;
61764;SDS011;50188;48.114;-1.388;2022-09-13T06:13:58;6.50;;;2.08;;
61764;SDS011;50188;48.114;-1.388;2022-09-13T06:16:24;9.82;;;2.90;;
61764;SDS011;50188;48.114;-1.388;2022-09-13T06:18:49;4.78;;;2.10;;
61764;SDS011;50188;48.114;-1.388;2022-09-13T06:21:16;6.95;;;1.63;;
61764;SDS011;50188;48.114;-1.388;2022-09-13T06:23:44;3.23;;;1.50;;
61764;SDS011;50188;48.114;-1.388;2022-09-13T06:26:11;3.80;;;2.20;;
61764;SDS011;50188;48.114;-1.388;2022-09-13T06:28:38;4.13;;;2.30;;
61764;SDS011;50188;48.114;-1.388;2022-09-13T06:31:05;10.77;;;2.25;;
61764;SDS011;50188;48.114;-1.388;2022-09-13T06:33:33;5.72;;;1.77;;
61764;SDS011;50188;48.114;-1.388;2022-09-13T06:36:03;3.28;;;1.98;;
61764;SDS011;50188;48.114;-1.388;2022-09-13T06:38:31;3.50;;;1.85;;
61764;SDS011;50188;48.114;-1.388;2022-09-13T06:40:58;10.80;;;2.47;;
61764;SDS011;50188;48.114;-1.388;2022-09-13T06:43:31;6.82;;;2.00;;
61764;SDS011;50188;48.114;-1.388;2022-09-13T06:45:58;5.20;;;2.28;;
61764;SDS011;50188;48.114;-1.388;2022-09-13T06:48:25;5.63;;;1.92;;
61764;SDS011;50188;48.114;-1.388;2022-09-13T06:50:51;3.38;;;1.58;;
61764;SDS011;50188;48.114;-1.388;2022-09-13T06:53:17;4.20;;;1.90;;
61764;SDS011;50188;48.114;-1.388;2022-09-13T06:55:42;3.17;;;1.45;;
61764;SDS011;50188;48.114;-1.388;2022-09-13T06:58:08;3.97;;;2.45;;
61764;SDS011;50188;48.114;-1.388;2022-09-13T07:00:34;5.40;;;1.85;;
61764;SDS011;50188;48.114;-1.388;2022-09-13T07:02:59;2.92;;;1.58;;
61764;SDS011;50188;48.114;-1.388;2022-09-13T07:05:25;2.92;;;2.03;;
61764;SDS011;50188;48.114;-1.388;2022-09-13T07:07:51;4.50;;;1.88;;
61764;SDS011;50188;48.114;-1.388;2022-09-13T07:10:17;4.32;;;2.33;;
61764;SDS011;50188;48.114;-1.388;2022-09-13T07:12:42;3.92;;;2.42;;
61764;SDS011;50188;48.114;-1.388;2022-09-13T07:15:08;12.55;;;2.75;;
61764;SDS011;50188;48.114;-1.388;2022-09-13T07:17:34;3.63;;;2.13;;
61764;SDS011;50188;48.114;-1.388;2022-09-13T07:19:59;4.38;;;2.28;;
61764;SDS011;50188;48.114;-1.388;2022-09-13T07:22:25;2.45;;;2.00;;
61764;SDS011;50188;48.114;-1.388;2022-09-13T07:24:52;11.45;;;2.78;;
61764;SDS011;50188;48.114;-1.388;2022-09-13T07:27:17;3.17;;;1.77;;
61764;SDS011;50188;48.114;-1.388;2022-09-13T07:29:43;1.92;;;1.75;;
61764;SDS011;50188;48.114;-1.388;2022-09-13T07:32:09;2.95;;;2.03;;
61764;SDS011;50188;48.114;-1.388;2022-09-13T07:34:34;2.65;;;2.42;;
61764;SDS011;50188;48.114;-1.388;2022-09-13T07:37:00;4.57;;;2.17;;
61764;SDS011;50188;48.114;-1.388;2022-09-13T07:39:26;2.20;;;1.98;;
61764;SDS011;50188;48.114;-1.388;2022-09-13T07:41:51;5.60;;;1.95;;
61764;SDS011;50188;48.114;-1.388;2022-09-13T07:44:17;6.35;;;2.47;;
61764;SDS011;50188;48.114;-1.388;2022-09-13T07:46:43;8.48;;;2.75;;
61764;SDS011;50188;48.114;-1.388;2022-09-13T07:49:10;6.22;;;3.60;;
61764;SDS011;50188;48.114;-1.388;2022-09-13T07:51:38;8.07;;;3.03;;
61764;SDS011;50188;48.114;-1.388;2022-09-13T07:54:08;7.70;;;5.63;;
61764;SDS011;50188;48.114;-1.388;2022-09-13T07:56:36;9.65;;;4.93;;
61764;SDS011;50188;48.114;-1.388;2022-09-13T07:59:04;6.57;;;5.10;;
61764;SDS011;50188;48.114;-1.388;2022-09-13T08:01:35;11.32;;;4.85;;
61764;SDS011;50188;48.114;-1.388;2022-09-13T08:04:07;8.65;;;5.35;;
61764;SDS011;50188;48.114;-1.388;2022-09-13T08:06:34;9.93;;;4.30;;
61764;SDS011;50188;48.114;-1.388;2022-09-13T08:09:02;7.32;;;4.57;;
61764;SDS011;50188;48.114;-1.388;2022-09-13T08:11:33;9.38;;;4.47;;
61764;SDS011;50188;48.114;-1.388;2022-09-13T08:14:00;12.68;;;4.05;;
61764;SDS011;50188;48.114;-1.388;2022-09-13T08:16:27;10.73;;;4.15;;
61764;SDS011;50188;48.114;-1.388;2022-09-13T08:18:54;6.32;;;3.55;;
61764;SDS011;50188;48.114;-1.388;2022-09-13T08:21:22;7.85;;;4.45;;
61764;SDS011;50188;48.114;-1.388;2022-09-13T08:23:53;11.45;;;3.92;;
61764;SDS011;50188;48.114;-1.388;2022-09-13T08:26:20;9.57;;;4.55;;
61764;SDS011;50188;48.114;-1.388;2022-09-13T08:28:46;10.90;;;4.60;;
61764;SDS011;50188;48.114;-1.388;2022-09-13T08:31:12;9.57;;;4.88;;
61764;SDS011;50188;48.114;-1.388;2022-09-13T08:33:43;6.03;;;3.33;;
61764;SDS011;50188;48.114;-1.388;2022-09-13T08:36:09;10.73;;;4.60;;
61764;SDS011;50188;48.114;-1.388;2022-09-13T08:38:35;11.77;;;4.65;;
61764;SDS011;50188;48.114;-1.388;2022-09-13T08:41:01;5.32;;;3.78;;
61764;SDS011;50188;48.114;-1.388;2022-09-13T08:46:07;9.70;;;4.75;;
61764;SDS011;50188;48.114;-1.388;2022-09-13T08:48:45;6.45;;;4.07;;
61764;SDS011;50188;48.114;-1.388;2022-09-13T08:51:26;4.70;;;3.60;;
61764;SDS011;50188;48.114;-1.388;2022-09-13T08:53:56;10.75;;;4.45;;
61764;SDS011;50188;48.114;-1.388;2022-09-13T08:56:51;7.82;;;4.22;;
61764;SDS011;50188;48.114;-1.388;2022-09-13T08:59:18;6.57;;;4.47;;
61764;SDS011;50188;48.114;-1.388;2022-09-13T09:02:18;9.32;;;4.53;;
61764;SDS011;50188;48.114;-1.388;2022-09-13T09:07:47;4.50;;;3.30;;
61764;SDS011;50188;48.114;-1.388;2022-09-13T09:10:29;6.43;;;4.45;;
61764;SDS011;50188;48.114;-1.388;2022-09-13T09:13:05;6.43;;;4.07;;
61764;SDS011;50188;48.114;-1.388;2022-09-13T09:15:42;13.30;;;3.42;;
61764;SDS011;50188;48.114;-1.388;2022-09-13T09:18:12;6.75;;;4.43;;
61764;SDS011;50188;48.114;-1.388;2022-09-13T09:20:45;14.27;;;4.70;;
61764;SDS011;50188;48.114;-1.388;2022-09-13T09:23:14;10.50;;;4.72;;
61764;SDS011;50188;48.114;-1.388;2022-09-13T09:25:42;8.48;;;4.80;;
61764;SDS011;50188;48.114;-1.388;2022-09-13T09:28:12;16.23;;;5.55;;
61764;SDS011;50188;48.114;-1.388;2022-09-13T09:30:56;7.40;;;4.25;;
61764;SDS011;50188;48.114;-1.388;2022-09-13T09:33:31;11.98;;;5.40;;
61764;SDS011;50188;48.114;-1.388;2022-09-13T09:36:10;8.55;;;5.03;;
61764;SDS011;50188;48.114;-1.388;2022-09-13T09:38:48;18.48;;;4.18;;
61764;SDS011;50188;48.114;-1.388;2022-09-13T09:41:24;11.70;;;4.70;;
61764;SDS011;50188;48.114;-1.388;2022-09-13T09:44:01;6.90;;;4.10;;
61764;SDS011;50188;48.114;-1.388;2022-09-13T09:46:40;8.48;;;4.32;;
61764;SDS011;50188;48.114;-1.388;2022-09-13T09:49:23;11.45;;;5.07;;
61764;SDS011;50188;48.114;-1.388;2022-09-13T09:52:16;10.40;;;4.40;;
61764;SDS011;50188;48.114;-1.388;2022-09-13T09:54:47;8.77;;;4.15;;
61764;SDS011;50188;48.114;-1.388;2022-09-13T09:57:14;9.65;;;3.50;;
61764;SDS011;50188;48.114;-1.388;2022-09-13T09:59:42;7.55;;;5.03;;
61764;SDS011;50188;48.114;-1.388;2022-09-13T10:02:13;6.80;;;4.38;;
61764;SDS011;50188;48.114;-1.388;2022-09-13T10:04:52;7.85;;;3.72;;
61764;SDS011;50188;48.114;-1.388;2022-09-13T10:07:25;7.45;;;4.20;;
61764;SDS011;50188;48.114;-1.388;2022-09-13T10:09:58;5.57;;;3.97;;
61764;SDS011;50188;48.114;-1.388;2022-09-13T10:12:28;12.60;;;4.93;;
61764;SDS011;50188;48.114;-1.388;2022-09-13T10:15:05;8.00;;;4.32;;
61764;SDS011;50188;48.114;-1.388;2022-09-13T10:17:41;10.68;;;3.88;;
61764;SDS011;50188;48.114;-1.388;2022-09-13T10:20:19;10.32;;;5.25;;
61764;SDS011;50188;48.114;-1.388;2022-09-13T10:23:04;9.90;;;4.82;;
61764;SDS011;50188;48.114;-1.388;2022-09-13T10:25:40;11.70;;;4.82;;
61764;SDS011;50188;48.114;-1.388;2022-09-13T10:28:13;10.32;;;4.70;;
61764;SDS011;50188;48.114;-1.388;2022-09-13T10:30:45;15.43;;;4.72;;
61764;SDS011;50188;48.114;-1.388;2022-09-13T10:33:27;14.95;;;5.65;;
61764;SDS011;50188;48.114;-1.388;2022-09-13T10:35:57;9.35;;;5.85;;
61764;SDS011;50188;48.114;-1.388;2022-09-13T10:38:28;12.93;;;5.47;;
61764;SDS011;50188;48.114;-1.388;2022-09-13T10:41:01;8.20;;;5.80;;
61764;SDS011;50188;48.114;-1.388;2022-09-13T10:43:30;12.80;;;5.25;;
61764;SDS011;50188;48.114;-1.388;2022-09-13T10:45:57;13.02;;;5.07;;
61764;SDS011;50188;48.114;-1.388;2022-09-13T10:48:24;8.65;;;4.70;;
61764;SDS011;50188;48.114;-1.388;2022-09-13T10:51:07;12.25;;;5.10;;
61764;SDS011;50188;48.114;-1.388;2022-09-13T10:54:07;9.13;;;5.63;;
61764;SDS011;50188;48.114;-1.388;2022-09-13T10:56:44;5.90;;;4.95;;
61764;SDS011;50188;48.114;-1.388;2022-09-13T10:59:26;15.07;;;5.72;;
61764;SDS011;50188;48.114;-1.388;2022-09-13T11:05:06;9.65;;;5.13;;
61764;SDS011;50188;48.114;-1.388;2022-09-13T11:07:52;10.25;;;5.68;;
61764;SDS011;50188;48.114;-1.388;2022-09-13T11:13:59;15.15;;;6.53;;
61764;SDS011;50188;48.114;-1.388;2022-09-13T11:16:52;16.33;;;6.38;;
61764;SDS011;50188;48.114;-1.388;2022-09-13T11:19:44;19.25;;;5.32;;
61764;SDS011;50188;48.114;-1.388;2022-09-13T11:22:39;11.98;;;5.20;;
61764;SDS011;50188;48.114;-1.388;2022-09-13T11:25:35;7.63;;;4.78;;
61764;SDS011;50188;48.114;-1.388;2022-09-13T11:28:36;8.60;;;5.38;;
61764;SDS011;50188;48.114;-1.388;2022-09-13T11:31:26;9.52;;;5.43;;
61764;SDS011;50188;48.114;-1.388;2022-09-13T11:34:15;9.90;;;5.50;;
61764;SDS011;50188;48.114;-1.388;2022-09-13T11:37:05;12.50;;;6.07;;
61764;SDS011;50188;48.114;-1.388;2022-09-13T11:40:02;7.57;;;5.07;;
61764;SDS011;50188;48.114;-1.388;2022-09-13T11:42:54;6.25;;;5.32;;
61764;SDS011;50188;48.114;-1.388;2022-09-13T11:45:44;9.85;;;6.68;;
61764;SDS011;50188;48.114;-1.388;2022-09-13T11:48:38;16.55;;;6.63;;
61764;SDS011;50188;48.114;-1.388;2022-09-13T11:54:15;9.88;;;5.40;;
61764;SDS011;50188;48.114;-1.388;2022-09-13T11:57:01;10.57;;;6.03;;
61764;SDS011;50188;48.114;-1.388;2022-09-13T11:59:44;11.10;;;5.35;;
61764;SDS011;50188;48.114;-1.388;2022-09-13T12:02:18;7.07;;;5.13;;
61764;SDS011;50188;48.114;-1.388;2022-09-13T12:05:00;8.82;;;5.07;;
61764;SDS011;50188;48.114;-1.388;2022-09-13T12:07:33;13.32;;;5.47;;
61764;SDS011;50188;48.114;-1.388;2022-09-13T12:10:12;7.75;;;4.95;;
61764;SDS011;50188;48.114;-1.388;2022-09-13T12:12:41;8.82;;;3.65;;
61764;SDS011;50188;48.114;-1.388;2022-09-13T12:15:16;7.68;;;4.05;;
61764;SDS011;50188;48.114;-1.388;2022-09-13T12:17:52;10.05;;;3.90;;
61764;SDS011;50188;48.114;-1.388;2022-09-13T12:20:29;7.72;;;4.80;;
61764;SDS011;50188;48.114;-1.388;2022-09-13T12:23:04;7.65;;;4.40;;
61764;SDS011;50188;48.114;-1.388;2022-09-13T12:25:45;9.70;;;5.18;;
61764;SDS011;50188;48.114;-1.388;2022-09-13T12:28:18;4.75;;;3.63;;
61764;SDS011;50188;48.114;-1.388;2022-09-13T12:31:03;10.02;;;5.00;;
61764;SDS011;50188;48.114;-1.388;2022-09-13T12:33:36;5.75;;;4.70;;
61764;SDS011;50188;48.114;-1.388;2022-09-13T12:36:08;8.73;;;4.35;;
61764;SDS011;50188;48.114;-1.388;2022-09-13T12:42:11;9.32;;;4.47;;
61764;SDS011;50188;48.114;-1.388;2022-09-13T12:45:11;9.60;;;4.47;;
61764;SDS011;50188;48.114;-1.388;2022-09-13T12:50:44;8.40;;;4.63;;
61764;SDS011;50188;48.114;-1.388;2022-09-13T12:53:54;10.93;;;4.95;;
61764;SDS011;50188;48.114;-1.388;2022-09-13T12:59:39;11.18;;;4.55;;
61764;SDS011;50188;48.114;-1.388;2022-09-13T13:02:32;9.75;;;4.65;;
61764;SDS011;50188;48.114;-1.388;2022-09-13T13:07:57;10.32;;;5.30;;
61764;SDS011;50188;48.114;-1.388;2022-09-13T13:10:28;11.50;;;5.35;;
61764;SDS011;50188;48.114;-1.388;2022-09-13T13:13:14;9.25;;;5.00;;
61764;SDS011;50188;48.114;-1.388;2022-09-13T13:15:53;10.05;;;4.68;;
61764;SDS011;50188;48.114;-1.388;2022-09-13T13:18:28;8.23;;;4.13;;
61764;SDS011;50188;48.114;-1.388;2022-09-13T13:21:25;6.32;;;4.43;;
61764;SDS011;50188;48.114;-1.388;2022-09-13T13:27:19;17.67;;;6.00;;
61764;SDS011;50188;48.114;-1.388;2022-09-13T13:33:18;7.88;;;6.10;;
61764;SDS011;50188;48.114;-1.388;2022-09-13T13:35:46;9.95;;;5.82;;
61764;SDS011;50188;48.114;-1.388;2022-09-13T13:38:14;11.80;;;5.45;;
61764;SDS011;50188;48.114;-1.388;2022-09-13T13:41:07;10.85;;;5.10;;
61764;SDS011;50188;48.114;-1.388;2022-09-13T13:47:39;13.73;;;6.95;;
61764;SDS011;50188;48.114;-1.388;2022-09-13T13:50:13;15.05;;;5.47;;
61764;SDS011;50188;48.114;-1.388;2022-09-13T13:55:26;10.27;;;5.40;;
61764;SDS011;50188;48.114;-1.388;2022-09-13T14:01:01;8.18;;;5.80;;
61764;SDS011;50188;48.114;-1.388;2022-09-13T14:03:41;12.48;;;6.93;;
61764;SDS011;50188;48.114;-1.388;2022-09-13T14:06:33;13.43;;;7.20;;
61764;SDS011;50188;48.114;-1.388;2022-09-13T14:09:24;11.93;;;6.70;;
61764;SDS011;50188;48.114;-1.388;2022-09-13T14:15:10;11.10;;;7.18;;
61764;SDS011;50188;48.114;-1.388;2022-09-13T14:17:59;13.00;;;7.50;;
61764;SDS011;50188;48.114;-1.388;2022-09-13T14:20:37;12.10;;;6.30;;
61764;SDS011;50188;48.114;-1.388;2022-09-13T14:23:23;6.25;;;5.63;;
61764;SDS011;50188;48.114;-1.388;2022-09-13T14:25:53;9.23;;;6.95;;
61764;SDS011;50188;48.114;-1.388;2022-09-13T14:28:20;15.10;;;6.95;;
61764;SDS011;50188;48.114;-1.388;2022-09-13T14:30:47;9.90;;;6.65;;
61764;SDS011;50188;48.114;-1.388;2022-09-13T14:33:25;7.25;;;5.82;;
61764;SDS011;50188;48.114;-1.388;2022-09-13T14:35:58;14.27;;;7.47;;
61764;SDS011;50188;48.114;-1.388;2022-09-13T14:38:30;9.50;;;6.10;;
61764;SDS011;50188;48.114;-1.388;2022-09-13T14:41:01;8.15;;;6.22;;
61764;SDS011;50188;48.114;-1.388;2022-09-13T14:43:39;13.32;;;5.88;;
61764;SDS011;50188;48.114;-1.388;2022-09-13T14:46:06;8.38;;;6.35;;
61764;SDS011;50188;48.114;-1.388;2022-09-13T14:48:42;13.45;;;7.35;;
61764;SDS011;50188;48.114;-1.388;2022-09-13T14:51:17;13.30;;;6.72;;
61764;SDS011;50188;48.114;-1.388;2022-09-13T14:53:54;11.02;;;6.57;;
61764;SDS011;50188;48.114;-1.388;2022-09-13T14:56:45;13.88;;;7.13;;
61764;SDS011;50188;48.114;-1.388;2022-09-13T14:59:17;13.75;;;7.10;;
61764;SDS011;50188;48.114;-1.388;2022-09-13T15:01:52;13.90;;;7.15;;
61764;SDS011;50188;48.114;-1.388;2022-09-13T15:04:18;24.75;;;6.22;;
61764;SDS011;50188;48.114;-1.388;2022-09-13T15:06:47;9.63;;;6.32;;
61764;SDS011;50188;48.114;-1.388;2022-09-13T15:09:32;12.93;;;7.25;;
61764;SDS011;50188;48.114;-1.388;2022-09-13T15:11:59;11.23;;;6.38;;
61764;SDS011;50188;48.114;-1.388;2022-09-13T15:14:29;12.15;;;6.53;;
61764;SDS011;50188;48.114;-1.388;2022-09-13T15:17:10;9.75;;;6.18;;
61764;SDS011;50188;48.114;-1.388;2022-09-13T15:19:41;13.20;;;6.45;;
61764;SDS011;50188;48.114;-1.388;2022-09-13T15:22:10;11.15;;;6.60;;
61764;SDS011;50188;48.114;-1.388;2022-09-13T15:24:44;19.35;;;6.78;;
61764;SDS011;50188;48.114;-1.388;2022-09-13T15:27:21;13.70;;;7.07;;
61764;SDS011;50188;48.114;-1.388;2022-09-13T15:29:57;10.88;;;6.45;;
61764;SDS011;50188;48.114;-1.388;2022-09-13T15:32:31;12.23;;;6.30;;
61764;SDS011;50188;48.114;-1.388;2022-09-13T15:35:00;16.85;;;7.50;;
61764;SDS011;50188;48.114;-1.388;2022-09-13T15:37:34;12.95;;;6.53;;
61764;SDS011;50188;48.114;-1.388;2022-09-13T15:40:07;11.70;;;7.18;;
61764;SDS011;50188;48.114;-1.388;2022-09-13T15:42:38;18.40;;;8.07;;
61764;SDS011;50188;48.114;-1.388;2022-09-13T15:45:04;13.50;;;8.25;;
61764;SDS011;50188;48.114;-1.388;2022-09-13T15:47:30;10.65;;;7.57;;
61764;SDS011;50188;48.114;-1.388;2022-09-13T15:49:56;12.77;;;7.68;;
61764;SDS011;50188;48.114;-1.388;2022-09-13T15:52:22;15.80;;;8.60;;
61764;SDS011;50188;48.114;-1.388;2022-09-13T15:54:49;8.27;;;7.45;;
61764;SDS011;50188;48.114;-1.388;2022-09-13T15:57:20;8.50;;;7.60;;
61764;SDS011;50188;48.114;-1.388;2022-09-13T15:59:47;7.75;;;6.22;;
61764;SDS011;50188;48.114;-1.388;2022-09-13T16:02:17;7.97;;;7.13;;
61764;SDS011;50188;48.114;-1.388;2022-09-13T16:07:17;11.50;;;7.88;;
61764;SDS011;50188;48.114;-1.388;2022-09-13T16:09:44;10.27;;;6.72;;
61764;SDS011;50188;48.114;-1.388;2022-09-13T16:12:10;15.05;;;6.60;;
61764;SDS011;50188;48.114;-1.388;2022-09-13T16:14:36;20.27;;;7.28;;